createdAt,value
2018-12-10T00:00:25.040Z,88.30
2018-12-10T00:03:06.375Z,89.60
2018-12-10T00:05:41.654Z,89.00
2018-12-10T00:08:16.838Z,89.50
2018-12-10T00:10:51.738Z,90.00
2018-12-10T00:13:27.107Z,90.30
2018-12-10T00:16:01.850Z,90.60
2018-12-10T00:18:37.181Z,90.40
2018-12-10T00:21:12.042Z,90.30
2018-12-10T00:23:47.533Z,90.10
2018-12-10T00:26:22.206Z,90.30
2018-12-10T00:28:57.306Z,90.10
2018-12-10T00:31:32.651Z,90.30
2018-12-10T00:34:07.715Z,91.00
2018-12-10T00:36:43.234Z,91.40
2018-12-10T00:39:18.617Z,90.60
2018-12-10T00:41:53.787Z,91.20
2018-12-10T00:44:29.149Z,90.90
2018-12-10T00:47:04.005Z,90.60
2018-12-10T00:49:39.037Z,91.00
2018-12-10T00:52:14.602Z,90.90
2018-12-10T00:54:50.168Z,91.20
2018-12-10T00:57:25.415Z,91.80
2018-12-10T01:00:00.595Z,92.70
2018-12-10T01:02:35.258Z,92.70
2018-12-10T01:05:10.355Z,92.70
2018-12-10T01:07:46.203Z,92.00
2018-12-10T01:10:21.562Z,91.20
2018-12-10T01:12:56.240Z,91.50
2018-12-10T01:15:37.868Z,90.80
2018-12-10T01:18:13.666Z,90.50
2018-12-10T01:20:48.423Z,90.20
2018-12-10T01:23:23.778Z,90.70
2018-12-10T01:25:58.807Z,90.70
2018-12-10T01:28:33.944Z,90.70
2018-12-10T01:31:08.979Z,90.40
2018-12-10T01:33:44.215Z,90.80
2018-12-10T01:36:19.405Z,90.90
2018-12-10T01:38:54.125Z,90.80
2018-12-10T01:41:29.384Z,90.70
2018-12-10T01:44:04.934Z,90.70
2018-12-10T01:46:40.648Z,90.90
2018-12-10T01:49:16.144Z,90.80
2018-12-10T01:51:43.728Z,90.70
2018-12-10T01:54:18.886Z,90.50
2018-12-10T01:56:46.685Z,91.40
2018-12-10T01:59:21.922Z,91.10
2018-12-10T02:01:56.986Z,91.50
2018-12-10T02:04:32.106Z,91.40
2018-12-10T02:07:07.421Z,92.00
2018-12-10T02:09:42.319Z,92.00
2018-12-10T02:12:17.515Z,91.80
2018-12-10T02:14:52.461Z,91.90
2018-12-10T02:17:27.644Z,91.90
2018-12-10T02:20:02.684Z,91.80
2018-12-10T02:22:38.114Z,92.00
2018-12-10T02:25:12.892Z,92.00
2018-12-10T02:27:48.154Z,92.10
2018-12-10T02:30:23.098Z,92.10
2018-12-10T02:32:57.798Z,91.90
2018-12-10T02:35:33.069Z,91.70
2018-12-10T02:38:08.349Z,91.40
2018-12-10T02:40:43.997Z,91.60
2018-12-10T02:43:18.778Z,91.60
2018-12-10T02:45:53.995Z,91.80
2018-12-10T02:48:29.997Z,91.90
2018-12-10T02:51:05.025Z,91.80
2018-12-10T02:53:39.739Z,92.10
2018-12-10T02:56:14.966Z,92.00
2018-12-10T02:58:49.726Z,92.20
2018-12-10T03:01:25.125Z,92.00
2018-12-10T03:04:00.674Z,92.20
2018-12-10T03:14:11.415Z,92.60
2018-12-10T03:24:20.562Z,92.50
2018-12-10T03:26:55.894Z,92.50
2018-12-10T03:29:31.379Z,92.40
2018-12-10T03:32:06.595Z,92.30
2018-12-10T03:34:41.533Z,92.40
2018-12-10T03:37:16.775Z,92.50
2018-12-10T03:39:52.055Z,92.20
2018-12-10T03:42:27.233Z,92.50
2018-12-10T03:45:02.825Z,92.30
2018-12-10T03:47:38.234Z,92.20
2018-12-10T03:50:13.115Z,92.10
2018-12-10T03:52:48.320Z,92.60
2018-12-10T03:55:22.969Z,92.40
2018-12-10T03:57:57.893Z,92.20
2018-12-10T04:00:33.255Z,92.10
2018-12-10T04:03:07.978Z,91.50
2018-12-10T04:05:43.225Z,91.30
2018-12-10T04:08:18.201Z,91.10
2018-12-10T04:10:53.535Z,91.50
2018-12-10T04:13:28.267Z,91.30
2018-12-10T04:16:03.559Z,91.80
2018-12-10T04:18:38.631Z,92.50
2018-12-10T04:21:13.470Z,92.60
2018-12-10T04:23:48.327Z,92.50
2018-12-10T04:26:23.273Z,92.50
2018-12-10T04:28:58.317Z,93.10
2018-12-10T04:31:33.466Z,93.50
2018-12-10T04:34:08.610Z,93.70
2018-12-10T04:36:43.501Z,94.10
2018-12-10T04:39:18.561Z,93.90
2018-12-10T04:41:53.675Z,93.70
2018-12-10T04:44:28.970Z,94.00
2018-12-10T04:47:04.991Z,93.60
2018-12-10T04:49:40.440Z,93.80
2018-12-10T04:52:15.406Z,94.10
2018-12-10T04:54:50.931Z,93.60
2018-12-10T04:57:26.687Z,94.10
2018-12-10T05:00:02.258Z,94.10
2018-12-10T05:02:36.857Z,93.60
2018-12-10T05:05:11.892Z,93.30
2018-12-10T05:07:47.070Z,93.30
2018-12-10T05:10:22.489Z,93.40
2018-12-10T05:12:57.183Z,93.30
2018-12-10T05:15:32.650Z,93.20
2018-12-10T05:18:07.441Z,93.50
2018-12-10T05:23:17.747Z,93.80
2018-12-10T05:25:52.727Z,93.30
2018-12-10T05:28:27.777Z,93.00
2018-12-10T05:31:02.492Z,92.60
2018-12-10T05:33:37.486Z,92.30
2018-12-10T05:36:12.419Z,91.90
2018-12-10T05:38:47.698Z,91.80
2018-12-10T05:41:23.189Z,91.60
2018-12-10T05:43:58.263Z,91.60
2018-12-10T05:46:33.305Z,91.70
2018-12-10T05:49:08.389Z,91.90
2018-12-10T05:51:43.950Z,92.20
2018-12-10T05:54:19.125Z,92.20
2018-12-10T05:56:46.962Z,92.20
2018-12-10T05:59:16.234Z,92.20
2018-12-10T06:01:51.504Z,92.20
2018-12-10T06:04:22.657Z,92.30
2018-12-10T06:07:00.137Z,92.40
2018-12-10T06:09:27.688Z,92.30
2018-12-10T06:11:58.466Z,92.30
2018-12-10T06:14:26.077Z,92.80
2018-12-10T06:17:00.689Z,92.40
2018-12-10T06:19:35.849Z,92.50
2018-12-10T06:22:10.602Z,92.70
2018-12-10T06:24:38.186Z,91.90
2018-12-10T06:27:05.941Z,92.20
2018-12-10T06:29:33.942Z,91.90
2018-12-10T06:32:01.808Z,92.00
2018-12-10T06:34:30.275Z,91.90
2018-12-10T06:36:57.945Z,92.40
2018-12-10T06:39:25.501Z,92.90
2018-12-10T06:41:53.010Z,93.30
2018-12-10T06:44:20.577Z,93.40
2018-12-10T06:46:48.212Z,93.60
2018-12-10T06:49:15.823Z,93.60
2018-12-10T06:51:43.420Z,93.60
2018-12-10T06:54:11.008Z,93.30
2018-12-10T06:56:38.585Z,93.60
2018-12-10T06:59:06.329Z,93.30
2018-12-10T07:01:33.989Z,93.20
2018-12-10T07:04:01.595Z,93.20
2018-12-10T07:06:29.424Z,93.10
2018-12-10T07:08:57.029Z,93.40
2018-12-10T07:11:24.833Z,92.90
2018-12-10T07:13:52.462Z,92.90
2018-12-10T07:16:20.238Z,92.70
2018-12-10T07:18:47.890Z,92.70
2018-12-10T07:21:15.816Z,92.30
2018-12-10T07:23:43.449Z,92.20
2018-12-10T07:26:11.341Z,92.60
2018-12-10T07:28:38.878Z,92.20
2018-12-10T07:31:06.429Z,92.20
2018-12-10T07:33:33.950Z,91.90
2018-12-10T07:36:01.571Z,92.10
2018-12-10T07:38:29.216Z,92.20
2018-12-10T07:40:56.796Z,92.30
2018-12-10T07:43:24.363Z,92.20
2018-12-10T07:45:51.913Z,92.20
2018-12-10T07:48:19.486Z,92.20
2018-12-10T07:50:47.049Z,92.40
2018-12-10T07:53:14.700Z,92.20
2018-12-10T07:55:42.262Z,92.50
2018-12-10T07:58:09.802Z,92.40
2018-12-10T08:00:37.457Z,92.40
2018-12-10T08:03:05.039Z,92.40
2018-12-10T08:05:32.565Z,92.50
2018-12-10T08:08:00.129Z,92.30
2018-12-10T08:10:27.764Z,92.10
2018-12-10T08:12:55.334Z,92.10
2018-12-10T08:15:22.919Z,92.00
2018-12-10T08:17:50.490Z,92.10
2018-12-10T08:20:18.095Z,92.00
2018-12-10T08:22:45.835Z,91.10
2018-12-10T08:25:23.187Z,90.60
2018-12-10T08:27:50.717Z,90.50
2018-12-10T08:30:18.335Z,90.00
2018-12-10T08:32:45.894Z,90.00
2018-12-10T08:35:13.689Z,88.90
2018-12-10T08:37:41.247Z,89.70
2018-12-10T08:40:08.808Z,89.40
2018-12-10T08:42:36.387Z,90.00
2018-12-10T08:50:00.898Z,89.80
2018-12-10T08:52:28.930Z,90.10
2018-12-10T08:54:56.596Z,89.80
2018-12-10T08:57:24.458Z,90.10
2018-12-10T08:59:52.317Z,90.00
2018-12-10T09:02:19.961Z,90.20
2018-12-10T09:04:47.618Z,90.30
2018-12-10T09:07:15.176Z,90.40
2018-12-10T09:09:42.807Z,90.40
2018-12-10T09:12:10.422Z,90.10
2018-12-10T09:14:38.096Z,90.20
2018-12-10T09:17:05.690Z,90.30
2018-12-10T09:19:33.269Z,90.30
2018-12-10T09:22:00.834Z,90.00
2018-12-10T09:24:28.383Z,89.40
2018-12-10T09:26:55.958Z,89.40
2018-12-10T09:29:23.592Z,89.70
2018-12-10T09:31:51.162Z,89.40
2018-12-10T09:34:18.754Z,89.00
2018-12-10T09:36:46.338Z,87.50
2018-12-10T09:39:13.935Z,87.70
2018-12-10T09:41:41.493Z,87.90
2018-12-10T09:44:09.071Z,86.70
2018-12-10T09:46:36.689Z,86.50
2018-12-10T09:49:04.276Z,85.70
2018-12-10T09:51:31.926Z,85.20
2018-12-10T09:53:59.497Z,87.30
2018-12-10T09:56:27.065Z,85.40
2018-12-10T09:58:54.664Z,83.90
2018-12-10T10:01:22.344Z,85.00
2018-12-10T10:03:50.149Z,85.30
2018-12-10T10:06:17.731Z,84.40
2018-12-10T10:08:45.293Z,82.70
2018-12-10T10:11:12.867Z,85.00
2018-12-10T10:13:40.459Z,85.70
2018-12-10T10:16:08.033Z,85.00
2018-12-10T10:18:35.686Z,86.10
2018-12-10T10:21:03.223Z,86.60
2018-12-10T10:23:30.772Z,87.30
2018-12-10T10:25:58.347Z,88.70
